NSTU

Pago Pago International Airport

Pago Pago, , American Samoa
NSTU 182334Z 1900/1924 05011KT P6SM VCSH FEW020 BKN040 BKN100
Issued Valid From Valid To
Jan-18 @ 23:34 UTC
(3 hours ago)
Jan-19 @ 00:00 UTC
(2 hours ago)
Jan-20 @ 00:00 UTC
(in 22 hours)
Jan-19 @ 00:00 to Jan-20 @ 00:00
NSTU 182334Z 1900/1924 05011KT P6SM VCSH FEW020 BKN040 BKN100
Wind Visibility Clouds
50° at 11 knots 10,000+ meters
  • Few at 2,000' AGL
  • Broken at 4,000' AGL
  • Broken at 10,000' AGL
NSTU 182334Z 1900/1924 05011KT P6SM VCSH FEW020 BKN040 BKN100
Issued Jan-18 @ 23:34 UTC
(3 hours ago)
Valid From Jan-19 @ 00:00 UTC
(2 hours ago)
Valid To Jan-20 @ 00:00 UTC
(in 22 hours)
Jan-19 @ 00:00 - Jan-20 @ 00:00
Wind Visibility
50° at 11 knots 10,000+ meters
Clouds
  • Few at 2,000' AGL
  • Broken at 4,000' AGL
  • Broken at 10,000' AGL